sensor_id;sensor_type;location;lat;lon;timestamp;temperature;humidity
9640;DHT22;51745;50.872;4.732;2023-05-23T00:01:01;14.30;99.90
9640;DHT22;51745;50.872;4.732;2023-05-23T00:03:48;13.30;99.90
9640;DHT22;51745;50.872;4.732;2023-05-23T00:06:39;13.20;99.90
9640;DHT22;51745;50.872;4.732;2023-05-23T00:09:30;13.30;99.90
9640;DHT22;51745;50.872;4.732;2023-05-23T00:12:18;13.30;99.90
9640;DHT22;51745;50.872;4.732;2023-05-23T00:15:06;13.30;99.90
9640;DHT22;51745;50.872;4.732;2023-05-23T00:17:55;13.30;99.90
9640;DHT22;51745;50.872;4.732;2023-05-23T00:20:44;13.30;99.90
9640;DHT22;51745;50.872;4.732;2023-05-23T00:23:34;13.30;99.90
9640;DHT22;51745;50.872;4.732;2023-05-23T00:26:21;13.30;99.90
9640;DHT22;51745;50.872;4.732;2023-05-23T00:29:09;13.30;99.90
9640;DHT22;51745;50.872;4.732;2023-05-23T00:32:00;13.30;99.90
9640;DHT22;51745;50.872;4.732;2023-05-23T00:34:48;13.30;99.90
9640;DHT22;51745;50.872;4.732;2023-05-23T00:37:35;13.30;99.90
9640;DHT22;51745;50.872;4.732;2023-05-23T00:40:25;13.30;99.90
9640;DHT22;51745;50.872;4.732;2023-05-23T00:43:12;13.30;99.90
9640;DHT22;51745;50.872;4.732;2023-05-23T00:46:00;13.30;99.90
9640;DHT22;51745;50.872;4.732;2023-05-23T00:48:48;13.30;99.90
9640;DHT22;51745;50.872;4.732;2023-05-23T00:51:36;13.30;99.90
9640;DHT22;51745;50.872;4.732;2023-05-23T00:54:24;13.30;99.90
9640;DHT22;51745;50.872;4.732;2023-05-23T00:57:15;13.30;99.90
9640;DHT22;51745;50.872;4.732;2023-05-23T01:00:03;13.30;99.90
9640;DHT22;51745;50.872;4.732;2023-05-23T01:02:52;13.30;99.90
9640;DHT22;51745;50.872;4.732;2023-05-23T01:05:41;13.40;99.90
9640;DHT22;51745;50.872;4.732;2023-05-23T01:08:28;13.40;99.90
9640;DHT22;51745;50.872;4.732;2023-05-23T01:11:18;13.40;99.90
9640;DHT22;51745;50.872;4.732;2023-05-23T01:14:11;13.40;99.90
9640;DHT22;51745;50.872;4.732;2023-05-23T01:17:00;13.50;99.90
9640;DHT22;51745;50.872;4.732;2023-05-23T01:19:54;13.40;99.90
9640;DHT22;51745;50.872;4.732;2023-05-23T01:23:01;13.40;99.90
9640;DHT22;51745;50.872;4.732;2023-05-23T01:25:59;13.40;99.90
9640;DHT22;51745;50.872;4.732;2023-05-23T01:28:54;13.50;99.90
9640;DHT22;51745;50.872;4.732;2023-05-23T01:31:43;13.40;99.90
9640;DHT22;51745;50.872;4.732;2023-05-23T01:34:32;13.40;99.90
9640;DHT22;51745;50.872;4.732;2023-05-23T01:37:21;13.40;99.90
9640;DHT22;51745;50.872;4.732;2023-05-23T01:40:09;13.40;99.90
9640;DHT22;51745;50.872;4.732;2023-05-23T01:42:57;13.30;99.90
9640;DHT22;51745;50.872;4.732;2023-05-23T01:45:47;13.40;99.90
9640;DHT22;51745;50.872;4.732;2023-05-23T01:48:35;13.40;99.90
9640;DHT22;51745;50.872;4.732;2023-05-23T01:51:23;13.40;99.90
9640;DHT22;51745;50.872;4.732;2023-05-23T01:54:13;13.40;99.90
9640;DHT22;51745;50.872;4.732;2023-05-23T01:57:06;13.40;99.90
9640;DHT22;51745;50.872;4.732;2023-05-23T01:59:53;13.40;99.90
9640;DHT22;51745;50.872;4.732;2023-05-23T02:02:42;13.40;99.90
9640;DHT22;51745;50.872;4.732;2023-05-23T02:05:30;13.40;99.90
9640;DHT22;51745;50.872;4.732;2023-05-23T02:08:19;13.40;99.90
9640;DHT22;51745;50.872;4.732;2023-05-23T02:11:07;13.40;99.90
9640;DHT22;51745;50.872;4.732;2023-05-23T02:13:56;15.20;99.90
9640;DHT22;51745;50.872;4.732;2023-05-23T02:16:43;13.40;99.90
9640;DHT22;51745;50.872;4.732;2023-05-23T02:19:33;13.40;99.90
9640;DHT22;51745;50.872;4.732;2023-05-23T02:22:21;13.50;99.90
9640;DHT22;51745;50.872;4.732;2023-05-23T02:25:09;13.50;99.90
9640;DHT22;51745;50.872;4.732;2023-05-23T02:27:57;13.50;99.90
9640;DHT22;51745;50.872;4.732;2023-05-23T02:30:45;13.40;99.90
9640;DHT22;51745;50.872;4.732;2023-05-23T02:33:32;13.50;99.90
9640;DHT22;51745;50.872;4.732;2023-05-23T02:36:21;13.50;99.90
9640;DHT22;51745;50.872;4.732;2023-05-23T02:39:08;13.60;99.90
9640;DHT22;51745;50.872;4.732;2023-05-23T02:41:56;13.60;99.90
9640;DHT22;51745;50.872;4.732;2023-05-23T02:44:45;13.60;99.90
9640;DHT22;51745;50.872;4.732;2023-05-23T02:47:32;13.60;99.90
9640;DHT22;51745;50.872;4.732;2023-05-23T02:50:20;13.50;99.90
9640;DHT22;51745;50.872;4.732;2023-05-23T02:53:09;13.50;99.90
9640;DHT22;51745;50.872;4.732;2023-05-23T02:55:57;13.50;99.90
9640;DHT22;51745;50.872;4.732;2023-05-23T02:58:44;13.50;99.90
9640;DHT22;51745;50.872;4.732;2023-05-23T03:01:32;13.50;99.90
9640;DHT22;51745;50.872;4.732;2023-05-23T03:04:20;13.50;99.90
9640;DHT22;51745;50.872;4.732;2023-05-23T03:07:08;13.40;99.90
9640;DHT22;51745;50.872;4.732;2023-05-23T03:10:08;13.50;99.90
9640;DHT22;51745;50.872;4.732;2023-05-23T03:12:56;13.50;99.90
9640;DHT22;51745;50.872;4.732;2023-05-23T03:15:43;13.40;99.90
9640;DHT22;51745;50.872;4.732;2023-05-23T03:18:31;13.40;99.90
9640;DHT22;51745;50.872;4.732;2023-05-23T03:21:20;14.40;99.90
9640;DHT22;51745;50.872;4.732;2023-05-23T03:24:11;13.30;99.90
9640;DHT22;51745;50.872;4.732;2023-05-23T03:27:00;13.30;99.90
9640;DHT22;51745;50.872;4.732;2023-05-23T03:29:48;13.30;99.90
9640;DHT22;51745;50.872;4.732;2023-05-23T03:32:36;13.30;99.90
9640;DHT22;51745;50.872;4.732;2023-05-23T03:35:24;13.30;99.90
9640;DHT22;51745;50.872;4.732;2023-05-23T03:38:11;13.30;99.90
9640;DHT22;51745;50.872;4.732;2023-05-23T03:40:59;13.30;99.90
9640;DHT22;51745;50.872;4.732;2023-05-23T03:43:48;13.20;99.90
9640;DHT22;51745;50.872;4.732;2023-05-23T03:46:35;13.20;99.90
9640;DHT22;51745;50.872;4.732;2023-05-23T03:49:25;13.10;99.90
9640;DHT22;51745;50.872;4.732;2023-05-23T03:52:12;13.10;99.90
9640;DHT22;51745;50.872;4.732;2023-05-23T03:55:00;14.00;99.90
9640;DHT22;51745;50.872;4.732;2023-05-23T03:57:49;13.00;99.90
9640;DHT22;51745;50.872;4.732;2023-05-23T04:00:39;10.70;99.90
9640;DHT22;51745;50.872;4.732;2023-05-23T04:03:27;13.00;99.90
9640;DHT22;51745;50.872;4.732;2023-05-23T04:06:18;12.90;99.90
9640;DHT22;51745;50.872;4.732;2023-05-23T04:09:07;12.90;99.90
9640;DHT22;51745;50.872;4.732;2023-05-23T04:11:58;13.00;99.90
9640;DHT22;51745;50.872;4.732;2023-05-23T04:14:46;14.30;99.90
9640;DHT22;51745;50.872;4.732;2023-05-23T04:17:36;12.80;99.90
9640;DHT22;51745;50.872;4.732;2023-05-23T04:20:24;12.90;99.90
9640;DHT22;51745;50.872;4.732;2023-05-23T04:23:12;12.70;99.90
9640;DHT22;51745;50.872;4.732;2023-05-23T04:26:03;12.80;99.90
9640;DHT22;51745;50.872;4.732;2023-05-23T04:28:53;12.80;99.90
9640;DHT22;51745;50.872;4.732;2023-05-23T04:31:41;12.70;99.90
9640;DHT22;51745;50.872;4.732;2023-05-23T04:34:33;12.90;99.90
9640;DHT22;51745;50.872;4.732;2023-05-23T04:37:21;12.80;99.90
9640;DHT22;51745;50.872;4.732;2023-05-23T04:40:12;12.80;99.90
9640;DHT22;51745;50.872;4.732;2023-05-23T04:43:32;12.90;99.90
9640;DHT22;51745;50.872;4.732;2023-05-23T04:46:31;12.90;99.90
9640;DHT22;51745;50.872;4.732;2023-05-23T04:49:29;12.10;99.90
9640;DHT22;51745;50.872;4.732;2023-05-23T04:52:24;13.00;99.90
9640;DHT22;51745;50.872;4.732;2023-05-23T04:55:14;12.90;99.90
9640;DHT22;51745;50.872;4.732;2023-05-23T04:58:01;13.00;99.90
9640;DHT22;51745;50.872;4.732;2023-05-23T05:00:49;13.00;99.90
9640;DHT22;51745;50.872;4.732;2023-05-23T05:03:36;13.00;99.90
9640;DHT22;51745;50.872;4.732;2023-05-23T05:06:24;13.00;99.90
9640;DHT22;51745;50.872;4.732;2023-05-23T05:09:15;13.00;99.90
9640;DHT22;51745;50.872;4.732;2023-05-23T05:12:04;13.00;99.90
9640;DHT22;51745;50.872;4.732;2023-05-23T05:14:51;13.00;99.90
9640;DHT22;51745;50.872;4.732;2023-05-23T05:17:39;13.00;99.90
9640;DHT22;51745;50.872;4.732;2023-05-23T05:20:30;13.10;99.90
9640;DHT22;51745;50.872;4.732;2023-05-23T05:23:18;13.00;99.90
9640;DHT22;51745;50.872;4.732;2023-05-23T05:26:07;13.00;99.90
9640;DHT22;51745;50.872;4.732;2023-05-23T05:28:55;13.10;99.90
9640;DHT22;51745;50.872;4.732;2023-05-23T05:31:44;13.00;99.90
9640;DHT22;51745;50.872;4.732;2023-05-23T05:34:32;13.10;99.90
9640;DHT22;51745;50.872;4.732;2023-05-23T05:37:20;13.30;99.90
9640;DHT22;51745;50.872;4.732;2023-05-23T05:40:08;13.10;99.90
9640;DHT22;51745;50.872;4.732;2023-05-23T05:43:01;13.10;99.90
9640;DHT22;51745;50.872;4.732;2023-05-23T05:45:48;13.10;99.90
9640;DHT22;51745;50.872;4.732;2023-05-23T05:48:36;13.10;99.90
9640;DHT22;51745;50.872;4.732;2023-05-23T05:51:28;13.20;99.90
9640;DHT22;51745;50.872;4.732;2023-05-23T05:54:16;13.20;99.90
9640;DHT22;51745;50.872;4.732;2023-05-23T05:57:04;13.30;99.90
9640;DHT22;51745;50.872;4.732;2023-05-23T05:59:53;13.50;99.90
9640;DHT22;51745;50.872;4.732;2023-05-23T06:02:41;13.30;99.90
9640;DHT22;51745;50.872;4.732;2023-05-23T06:05:29;13.40;99.90
9640;DHT22;51745;50.872;4.732;2023-05-23T06:08:16;13.30;99.90
9640;DHT22;51745;50.872;4.732;2023-05-23T06:11:03;13.30;99.90
9640;DHT22;51745;50.872;4.732;2023-05-23T06:13:51;13.30;99.90
9640;DHT22;51745;50.872;4.732;2023-05-23T06:16:40;13.30;99.90
9640;DHT22;51745;50.872;4.732;2023-05-23T06:19:28;13.30;99.90
9640;DHT22;51745;50.872;4.732;2023-05-23T06:22:16;13.20;99.90
9640;DHT22;51745;50.872;4.732;2023-05-23T06:25:05;13.20;99.90
9640;DHT22;51745;50.872;4.732;2023-05-23T06:27:53;13.20;99.90
9640;DHT22;51745;50.872;4.732;2023-05-23T06:30:41;13.10;99.90
9640;DHT22;51745;50.872;4.732;2023-05-23T06:33:30;13.10;99.90
9640;DHT22;51745;50.872;4.732;2023-05-23T06:36:20;13.00;99.90
9640;DHT22;51745;50.872;4.732;2023-05-23T06:39:07;13.10;99.90
9640;DHT22;51745;50.872;4.732;2023-05-23T06:41:55;13.10;99.90
9640;DHT22;51745;50.872;4.732;2023-05-23T06:44:43;13.00;99.90
9640;DHT22;51745;50.872;4.732;2023-05-23T06:47:31;13.00;99.90
9640;DHT22;51745;50.872;4.732;2023-05-23T06:50:22;13.10;99.90
9640;DHT22;51745;50.872;4.732;2023-05-23T06:53:10;13.10;99.90
9640;DHT22;51745;50.872;4.732;2023-05-23T06:55:59;13.20;99.90
9640;DHT22;51745;50.872;4.732;2023-05-23T06:58:50;13.30;99.90
9640;DHT22;51745;50.872;4.732;2023-05-23T07:01:43;13.10;99.90
9640;DHT22;51745;50.872;4.732;2023-05-23T07:04:36;13.40;99.90
9640;DHT22;51745;50.872;4.732;2023-05-23T07:07:31;13.60;99.90
9640;DHT22;51745;50.872;4.732;2023-05-23T07:10:19;13.80;99.90
9640;DHT22;51745;50.872;4.732;2023-05-23T07:13:09;13.60;99.90
9640;DHT22;51745;50.872;4.732;2023-05-23T07:15:57;13.80;99.90
9640;DHT22;51745;50.872;4.732;2023-05-23T07:18:44;13.80;99.90
9640;DHT22;51745;50.872;4.732;2023-05-23T07:21:33;13.70;99.90
9640;DHT22;51745;50.872;4.732;2023-05-23T07:24:23;13.50;99.90
9640;DHT22;51745;50.872;4.732;2023-05-23T07:27:13;13.60;99.90
9640;DHT22;51745;50.872;4.732;2023-05-23T07:30:03;13.60;99.90
9640;DHT22;51745;50.872;4.732;2023-05-23T07:32:50;14.20;99.90
9640;DHT22;51745;50.872;4.732;2023-05-23T07:35:39;13.90;99.90
9640;DHT22;51745;50.872;4.732;2023-05-23T07:38:27;13.90;99.90
9640;DHT22;51745;50.872;4.732;2023-05-23T07:41:16;13.90;99.90
9640;DHT22;51745;50.872;4.732;2023-05-23T07:44:03;13.90;99.90
9640;DHT22;51745;50.872;4.732;2023-05-23T07:46:52;13.80;99.90
9640;DHT22;51745;50.872;4.732;2023-05-23T07:49:40;13.60;99.90
9640;DHT22;51745;50.872;4.732;2023-05-23T07:52:28;13.60;99.90
9640;DHT22;51745;50.872;4.732;2023-05-23T07:55:17;13.60;99.90
9640;DHT22;51745;50.872;4.732;2023-05-23T07:58:06;13.50;99.90
9640;DHT22;51745;50.872;4.732;2023-05-23T08:00:54;13.50;99.90
9640;DHT22;51745;50.872;4.732;2023-05-23T08:04:02;13.50;99.90
9640;DHT22;51745;50.872;4.732;2023-05-23T08:07:01;13.90;99.90
9640;DHT22;51745;50.872;4.732;2023-05-23T08:10:17;13.60;99.90
9640;DHT22;51745;50.872;4.732;2023-05-23T08:13:07;13.60;99.90
9640;DHT22;51745;50.872;4.732;2023-05-23T08:16:04;13.40;99.90
9640;DHT22;51745;50.872;4.732;2023-05-23T08:18:52;13.50;99.90
9640;DHT22;51745;50.872;4.732;2023-05-23T08:21:40;13.60;99.90
9640;DHT22;51745;50.872;4.732;2023-05-23T08:24:27;13.60;99.90
9640;DHT22;51745;50.872;4.732;2023-05-23T08:27:15;13.60;99.90
9640;DHT22;51745;50.872;4.732;2023-05-23T08:30:08;13.60;99.90
9640;DHT22;51745;50.872;4.732;2023-05-23T08:32:57;13.60;99.90
9640;DHT22;51745;50.872;4.732;2023-05-23T08:35:46;13.60;99.90
9640;DHT22;51745;50.872;4.732;2023-05-23T08:38:36;13.60;99.90
9640;DHT22;51745;50.872;4.732;2023-05-23T08:41:33;13.80;99.90
9640;DHT22;51745;50.872;4.732;2023-05-23T08:44:30;14.30;99.90
9640;DHT22;51745;50.872;4.732;2023-05-23T08:47:20;14.00;99.90
9640;DHT22;51745;50.872;4.732;2023-05-23T08:50:17;14.40;99.90
9640;DHT22;51745;50.872;4.732;2023-05-23T08:53:09;14.60;99.90
9640;DHT22;51745;50.872;4.732;2023-05-23T08:56:08;14.90;99.90
9640;DHT22;51745;50.872;4.732;2023-05-23T08:59:01;15.10;99.90
9640;DHT22;51745;50.872;4.732;2023-05-23T09:01:50;15.00;99.90
9640;DHT22;51745;50.872;4.732;2023-05-23T09:04:42;14.60;99.90
9640;DHT22;51745;50.872;4.732;2023-05-23T09:07:33;14.50;99.90
9640;DHT22;51745;50.872;4.732;2023-05-23T09:10:21;14.40;99.90
9640;DHT22;51745;50.872;4.732;2023-05-23T09:13:09;14.10;99.90
9640;DHT22;51745;50.872;4.732;2023-05-23T09:16:02;14.20;99.90
9640;DHT22;51745;50.872;4.732;2023-05-23T09:18:58;14.30;99.90
9640;DHT22;51745;50.872;4.732;2023-05-23T09:21:57;14.40;99.90
9640;DHT22;51745;50.872;4.732;2023-05-23T09:24:57;14.60;99.90
9640;DHT22;51745;50.872;4.732;2023-05-23T09:27:45;14.60;99.90
9640;DHT22;51745;50.872;4.732;2023-05-23T09:30:36;14.50;99.90
9640;DHT22;51745;50.872;4.732;2023-05-23T09:33:33;14.40;99.90
9640;DHT22;51745;50.872;4.732;2023-05-23T09:36:21;14.00;99.90
9640;DHT22;51745;50.872;4.732;2023-05-23T09:39:10;14.20;99.90
9640;DHT22;51745;50.872;4.732;2023-05-23T09:41:59;14.30;99.90
9640;DHT22;51745;50.872;4.732;2023-05-23T09:44:47;14.10;99.90
9640;DHT22;51745;50.872;4.732;2023-05-23T09:47:35;14.30;99.90
9640;DHT22;51745;50.872;4.732;2023-05-23T09:50:22;14.30;99.90
9640;DHT22;51745;50.872;4.732;2023-05-23T09:53:10;14.90;99.90
9640;DHT22;51745;50.872;4.732;2023-05-23T09:56:01;14.40;99.90
9640;DHT22;51745;50.872;4.732;2023-05-23T09:58:49;14.10;99.90
9640;DHT22;51745;50.872;4.732;2023-05-23T10:01:36;13.90;99.90
9640;DHT22;51745;50.872;4.732;2023-05-23T10:04:24;14.10;99.90
9640;DHT22;51745;50.872;4.732;2023-05-23T10:07:13;12.40;99.90
9640;DHT22;51745;50.872;4.732;2023-05-23T10:10:02;14.10;99.90
9640;DHT22;51745;50.872;4.732;2023-05-23T10:12:52;14.10;99.90
9640;DHT22;51745;50.872;4.732;2023-05-23T10:15:42;14.30;99.90
9640;DHT22;51745;50.872;4.732;2023-05-23T10:18:30;14.30;99.90
9640;DHT22;51745;50.872;4.732;2023-05-23T10:21:23;14.40;99.90
9640;DHT22;51745;50.872;4.732;2023-05-23T10:24:11;14.40;99.90
9640;DHT22;51745;50.872;4.732;2023-05-23T10:27:00;14.10;99.90
9640;DHT22;51745;50.872;4.732;2023-05-23T10:29:49;14.10;99.90
9640;DHT22;51745;50.872;4.732;2023-05-23T10:32:37;14.20;99.90
9640;DHT22;51745;50.872;4.732;2023-05-23T10:35:29;14.50;99.90
9640;DHT22;51745;50.872;4.732;2023-05-23T10:38:29;14.50;99.90
9640;DHT22;51745;50.872;4.732;2023-05-23T10:41:22;14.40;99.90
9640;DHT22;51745;50.872;4.732;2023-05-23T10:44:15;14.50;99.90
9640;DHT22;51745;50.872;4.732;2023-05-23T10:47:07;14.40;99.90
9640;DHT22;51745;50.872;4.732;2023-05-23T10:49:54;14.10;99.90
9640;DHT22;51745;50.872;4.732;2023-05-23T10:52:43;14.30;99.90
9640;DHT22;51745;50.872;4.732;2023-05-23T10:55:35;14.60;99.90
9640;DHT22;51745;50.872;4.732;2023-05-23T10:58:23;14.80;99.90
9640;DHT22;51745;50.872;4.732;2023-05-23T11:01:12;15.10;99.90
9640;DHT22;51745;50.872;4.732;2023-05-23T11:04:09;15.00;99.90
9640;DHT22;51745;50.872;4.732;2023-05-23T11:07:00;15.50;99.90
9640;DHT22;51745;50.872;4.732;2023-05-23T11:10:07;15.90;99.90
9640;DHT22;51745;50.872;4.732;2023-05-23T11:12:55;16.00;99.90
9640;DHT22;51745;50.872;4.732;2023-05-23T11:15:52;16.00;99.90
9640;DHT22;51745;50.872;4.732;2023-05-23T11:18:39;16.00;99.90
9640;DHT22;51745;50.872;4.732;2023-05-23T11:21:29;15.70;99.90
9640;DHT22;51745;50.872;4.732;2023-05-23T11:24:21;15.40;99.90
9640;DHT22;51745;50.872;4.732;2023-05-23T11:27:12;15.10;99.90
9640;DHT22;51745;50.872;4.732;2023-05-23T11:30:00;15.50;99.90
9640;DHT22;51745;50.872;4.732;2023-05-23T11:32:49;15.90;99.90
9640;DHT22;51745;50.872;4.732;2023-05-23T11:35:37;15.90;99.90
9640;DHT22;51745;50.872;4.732;2023-05-23T11:38:27;16.50;99.90
9640;DHT22;51745;50.872;4.732;2023-05-23T11:41:15;16.70;99.90
9640;DHT22;51745;50.872;4.732;2023-05-23T11:44:09;16.10;99.90
9640;DHT22;51745;50.872;4.732;2023-05-23T11:47:01;16.10;99.90
9640;DHT22;51745;50.872;4.732;2023-05-23T11:49:49;16.10;99.90
9640;DHT22;51745;50.872;4.732;2023-05-23T11:52:36;16.00;99.90
9640;DHT22;51745;50.872;4.732;2023-05-23T11:55:25;15.80;99.90
9640;DHT22;51745;50.872;4.732;2023-05-23T11:58:14;15.80;99.90
9640;DHT22;51745;50.872;4.732;2023-05-23T12:01:02;16.50;99.90
9640;DHT22;51745;50.872;4.732;2023-05-23T12:03:50;16.10;99.90
9640;DHT22;51745;50.872;4.732;2023-05-23T12:06:39;16.10;99.90
9640;DHT22;51745;50.872;4.732;2023-05-23T12:09:28;16.30;99.90
9640;DHT22;51745;50.872;4.732;2023-05-23T12:12:17;16.40;99.90
9640;DHT22;51745;50.872;4.732;2023-05-23T12:15:06;16.40;99.90
9640;DHT22;51745;50.872;4.732;2023-05-23T12:17:55;16.40;99.90
9640;DHT22;51745;50.872;4.732;2023-05-23T12:20:43;16.40;99.90
9640;DHT22;51745;50.872;4.732;2023-05-23T12:23:30;16.40;99.90
9640;DHT22;51745;50.872;4.732;2023-05-23T12:26:20;16.80;99.90
9640;DHT22;51745;50.872;4.732;2023-05-23T12:29:11;16.50;99.90
9640;DHT22;51745;50.872;4.732;2023-05-23T12:31:59;16.80;99.90
9640;DHT22;51745;50.872;4.732;2023-05-23T12:34:48;16.70;99.90
9640;DHT22;51745;50.872;4.732;2023-05-23T12:37:37;16.30;99.90
9640;DHT22;51745;50.872;4.732;2023-05-23T12:40:26;16.30;99.90
9640;DHT22;51745;50.872;4.732;2023-05-23T12:43:14;16.70;99.90
9640;DHT22;51745;50.872;4.732;2023-05-23T12:46:03;17.10;99.90
9640;DHT22;51745;50.872;4.732;2023-05-23T12:48:52;17.30;99.90
9640;DHT22;51745;50.872;4.732;2023-05-23T12:51:40;17.50;99.90
9640;DHT22;51745;50.872;4.732;2023-05-23T12:54:28;17.30;99.90
9640;DHT22;51745;50.872;4.732;2023-05-23T12:57:16;17.00;99.90
9640;DHT22;51745;50.872;4.732;2023-05-23T13:00:04;18.10;99.90
9640;DHT22;51745;50.872;4.732;2023-05-23T13:02:55;16.90;99.90
9640;DHT22;51745;50.872;4.732;2023-05-23T13:05:44;18.30;99.90
9640;DHT22;51745;50.872;4.732;2023-05-23T13:08:33;17.50;99.90
9640;DHT22;51745;50.872;4.732;2023-05-23T13:11:20;17.50;99.90
9640;DHT22;51745;50.872;4.732;2023-05-23T13:14:08;17.40;99.90
9640;DHT22;51745;50.872;4.732;2023-05-23T13:16:57;17.50;99.90
9640;DHT22;51745;50.872;4.732;2023-05-23T13:19:46;17.30;99.90
9640;DHT22;51745;50.872;4.732;2023-05-23T13:22:34;17.20;99.90
9640;DHT22;51745;50.872;4.732;2023-05-23T13:25:22;17.10;99.90
9640;DHT22;51745;50.872;4.732;2023-05-23T13:28:09;17.20;99.90
9640;DHT22;51745;50.872;4.732;2023-05-23T13:30:57;17.40;99.90
9640;DHT22;51745;50.872;4.732;2023-05-23T13:33:45;17.60;99.90
9640;DHT22;51745;50.872;4.732;2023-05-23T13:36:35;17.40;99.90
9640;DHT22;51745;50.872;4.732;2023-05-23T13:39:23;17.50;99.90
9640;DHT22;51745;50.872;4.732;2023-05-23T13:42:10;17.30;99.90
9640;DHT22;51745;50.872;4.732;2023-05-23T13:44:58;17.30;99.90
9640;DHT22;51745;50.872;4.732;2023-05-23T13:47:45;17.20;99.90
9640;DHT22;51745;50.872;4.732;2023-05-23T13:50:33;17.30;99.90
9640;DHT22;51745;50.872;4.732;2023-05-23T13:56:11;17.40;99.90
9640;DHT22;51745;50.872;4.732;2023-05-23T13:58:59;16.70;99.90
9640;DHT22;51745;50.872;4.732;2023-05-23T14:04:38;17.20;99.90
9640;DHT22;51745;50.872;4.732;2023-05-23T14:07:26;17.30;99.90
9640;DHT22;51745;50.872;4.732;2023-05-23T14:10:13;16.90;99.90
9640;DHT22;51745;50.872;4.732;2023-05-23T14:13:06;16.70;99.90
9640;DHT22;51745;50.872;4.732;2023-05-23T14:15:54;16.70;99.90
9640;DHT22;51745;50.872;4.732;2023-05-23T14:18:43;17.20;99.90
9640;DHT22;51745;50.872;4.732;2023-05-23T14:21:30;16.90;99.90
9640;DHT22;51745;50.872;4.732;2023-05-23T14:24:18;16.80;99.90
9640;DHT22;51745;50.872;4.732;2023-05-23T14:27:08;16.50;99.90
9640;DHT22;51745;50.872;4.732;2023-05-23T14:29:58;16.70;99.90
9640;DHT22;51745;50.872;4.732;2023-05-23T14:32:46;17.60;99.90
9640;DHT22;51745;50.872;4.732;2023-05-23T14:35:34;18.00;99.90
9640;DHT22;51745;50.872;4.732;2023-05-23T14:38:22;18.00;99.90
9640;DHT22;51745;50.872;4.732;2023-05-23T14:41:10;17.40;99.90
9640;DHT22;51745;50.872;4.732;2023-05-23T14:43:58;18.10;99.90
9640;DHT22;51745;50.872;4.732;2023-05-23T14:46:48;18.20;99.90
9640;DHT22;51745;50.872;4.732;2023-05-23T14:49:36;18.40;99.90
9640;DHT22;51745;50.872;4.732;2023-05-23T14:52:24;18.50;99.90
9640;DHT22;51745;50.872;4.732;2023-05-23T14:55:12;18.80;99.90
9640;DHT22;51745;50.872;4.732;2023-05-23T14:57:59;18.40;99.90
9640;DHT22;51745;50.872;4.732;2023-05-23T15:00:49;18.80;99.90
9640;DHT22;51745;50.872;4.732;2023-05-23T15:03:38;18.80;99.90
9640;DHT22;51745;50.872;4.732;2023-05-23T15:06:27;19.90;99.90
9640;DHT22;51745;50.872;4.732;2023-05-23T15:09:15;18.60;99.90
9640;DHT22;51745;50.872;4.732;2023-05-23T15:12:04;18.20;99.90
9640;DHT22;51745;50.872;4.732;2023-05-23T15:14:54;18.00;99.90
9640;DHT22;51745;50.872;4.732;2023-05-23T15:17:50;17.40;99.90
9640;DHT22;51745;50.872;4.732;2023-05-23T15:20:39;15.30;99.90
9640;DHT22;51745;50.872;4.732;2023-05-23T15:23:27;16.90;99.90
9640;DHT22;51745;50.872;4.732;2023-05-23T15:26:15;16.70;99.90
9640;DHT22;51745;50.872;4.732;2023-05-23T15:29:03;16.70;99.90
9640;DHT22;51745;50.872;4.732;2023-05-23T15:31:51;16.90;99.90
9640;DHT22;51745;50.872;4.732;2023-05-23T15:34:40;17.10;99.90
9640;DHT22;51745;50.872;4.732;2023-05-23T15:37:29;17.30;99.90
9640;DHT22;51745;50.872;4.732;2023-05-23T15:40:18;17.20;99.90
9640;DHT22;51745;50.872;4.732;2023-05-23T15:43:07;17.40;99.90
9640;DHT22;51745;50.872;4.732;2023-05-23T15:45:55;17.60;99.90
9640;DHT22;51745;50.872;4.732;2023-05-23T15:48:42;17.60;99.90
9640;DHT22;51745;50.872;4.732;2023-05-23T15:51:29;17.80;99.90
9640;DHT22;51745;50.872;4.732;2023-05-23T15:54:19;17.30;99.90
9640;DHT22;51745;50.872;4.732;2023-05-23T15:57:07;17.50;99.90
9640;DHT22;51745;50.872;4.732;2023-05-23T15:59:55;17.20;99.90
9640;DHT22;51745;50.872;4.732;2023-05-23T16:02:44;19.60;99.90
9640;DHT22;51745;50.872;4.732;2023-05-23T16:05:32;17.30;99.90
9640;DHT22;51745;50.872;4.732;2023-05-23T16:08:21;17.40;99.90
9640;DHT22;51745;50.872;4.732;2023-05-23T16:11:10;16.90;99.90
9640;DHT22;51745;50.872;4.732;2023-05-23T16:13:58;17.00;99.90
9640;DHT22;51745;50.872;4.732;2023-05-23T16:16:45;16.60;99.90
9640;DHT22;51745;50.872;4.732;2023-05-23T16:19:34;16.80;99.90
9640;DHT22;51745;50.872;4.732;2023-05-23T16:27:59;17.30;99.90
9640;DHT22;51745;50.872;4.732;2023-05-23T16:30:47;17.30;99.90
9640;DHT22;51745;50.872;4.732;2023-05-23T16:33:36;17.10;99.90
9640;DHT22;51745;50.872;4.732;2023-05-23T16:36:24;16.80;99.90
9640;DHT22;51745;50.872;4.732;2023-05-23T16:39:12;17.00;99.90
9640;DHT22;51745;50.872;4.732;2023-05-23T16:42:00;17.00;99.90
9640;DHT22;51745;50.872;4.732;2023-05-23T16:44:50;17.10;99.90
9640;DHT22;51745;50.872;4.732;2023-05-23T16:47:38;17.10;99.90
9640;DHT22;51745;50.872;4.732;2023-05-23T16:50:26;16.90;99.90
9640;DHT22;51745;50.872;4.732;2023-05-23T16:53:13;16.90;99.90
9640;DHT22;51745;50.872;4.732;2023-05-23T16:56:00;16.80;99.90
9640;DHT22;51745;50.872;4.732;2023-05-23T16:58:52;17.00;99.90
9640;DHT22;51745;50.872;4.732;2023-05-23T17:01:41;16.90;99.90
9640;DHT22;51745;50.872;4.732;2023-05-23T17:04:29;16.50;99.90
9640;DHT22;51745;50.872;4.732;2023-05-23T17:07:19;16.50;99.90
9640;DHT22;51745;50.872;4.732;2023-05-23T17:10:07;16.40;99.90
9640;DHT22;51745;50.872;4.732;2023-05-23T17:12:55;16.90;99.90
9640;DHT22;51745;50.872;4.732;2023-05-23T17:18:32;16.60;99.90
9640;DHT22;51745;50.872;4.732;2023-05-23T17:21:20;16.40;99.90
9640;DHT22;51745;50.872;4.732;2023-05-23T17:24:08;19.10;99.90
9640;DHT22;51745;50.872;4.732;2023-05-23T17:26:56;16.50;99.90
9640;DHT22;51745;50.872;4.732;2023-05-23T17:29:44;16.30;99.90
9640;DHT22;51745;50.872;4.732;2023-05-23T17:32:32;16.00;99.90
9640;DHT22;51745;50.872;4.732;2023-05-23T17:35:22;15.90;99.90
9640;DHT22;51745;50.872;4.732;2023-05-23T17:38:11;16.00;99.90
9640;DHT22;51745;50.872;4.732;2023-05-23T17:40:59;16.00;99.90
9640;DHT22;51745;50.872;4.732;2023-05-23T17:46:36;16.00;99.90
9640;DHT22;51745;50.872;4.732;2023-05-23T17:49:24;15.80;99.90
9640;DHT22;51745;50.872;4.732;2023-05-23T17:52:12;15.50;99.90
9640;DHT22;51745;50.872;4.732;2023-05-23T17:55:00;15.40;99.90
9640;DHT22;51745;50.872;4.732;2023-05-23T17:57:49;15.40;99.90
9640;DHT22;51745;50.872;4.732;2023-05-23T18:00:38;15.50;99.90
9640;DHT22;51745;50.872;4.732;2023-05-23T18:03:26;16.00;99.90
9640;DHT22;51745;50.872;4.732;2023-05-23T18:06:14;15.50;99.90
9640;DHT22;51745;50.872;4.732;2023-05-23T18:09:03;15.60;99.90
9640;DHT22;51745;50.872;4.732;2023-05-23T18:11:51;15.60;99.90
9640;DHT22;51745;50.872;4.732;2023-05-23T18:14:39;15.00;99.90
9640;DHT22;51745;50.872;4.732;2023-05-23T18:17:28;15.60;99.90
9640;DHT22;51745;50.872;4.732;2023-05-23T18:20:15;15.60;99.90
9640;DHT22;51745;50.872;4.732;2023-05-23T18:23:03;15.20;99.90